• Join FlightAware (Why Join?)
  • Login
  • US Flag 
04:38AM EDT


 

Airport Tracker/Info


-or-


 

Live Flight TrackerFlight Track Log ✈ UCA596 ✈ 29-Oct-2013 ✈ KIAD - KBGM

Flight Track Log - Related Links

Times and Time Zones

All times are in EDT time to prevent confusion due to time zone crossing. See the UCA596 flight status page for this flight to view local times or setup timezone preferences in your user account.

Time Position Orientation Groundspeed Altitude Reporting Facility
EDT Latitude Longitude Course Direction KTS MPH feet Rate Location/Type
01:02PM 39.0000 -77.4500 360° North 159 183 2,900  Level Potomac TRACON
01:03PM 39.0333 -77.4500 360° North 176 203 4,400 1,680 Climbing Potomac TRACON
01:04PM 39.1000 -77.4667 349° North 188 216 6,300 1,620 Climbing Potomac TRACON
01:05PM 39.1333 -77.4667 360° North 184 212 7,700 1,620 Climbing Potomac TRACON
01:07PM 39.2319 -77.4833 353° North 190 219 10,900 1,500 Climbing Washington Center
01:08PM 39.2903 -77.4847 359° North 190 219 12,300 1,020 Climbing Washington Center
01:09PM 39.3447 -77.4836 North 203 234 13,100 1,140 Climbing Washington Center
01:10PM 39.4136 -77.4747 North 219 252 14,600 1,440 Climbing Washington Center
01:11PM 39.4656 -77.4706 North 214 246 16,000 1,140 Climbing Washington Center
01:13PM 39.5883 -77.4578 North 207 238 18,300 900 Climbing New York Center
01:14PM 39.6531 -77.4531 North 202 232 19,000 300 Climbing New York Center
01:15PM 39.7156 -77.4536 360° North 227 261 19,000  Level New York Center
01:16PM 39.7928 -77.4528 360° North 244 281 19,000  Level New York Center
01:17PM 39.8575 -77.4508 North 254 292 19,000  Level New York Center
01:18PM 39.9328 -77.4500 360° North 254 292 19,000  Level New York Center
01:19PM 39.9953 -77.4506 360° North 254 292 19,000  Level New York Center
01:20PM 40.0703 -77.4497 360° North 249 287 19,000  Level New York Center
01:21PM 40.1311 -77.4472 North 249 287 19,000  Level New York Center
01:22PM 40.2061 -77.4464 360° North 249 287 19,000  Level New York Center
01:23PM 40.2647 -77.4439 North 238 274 19,000  Level New York Center
01:24PM 40.3397 -77.4456 359° North 233 268 19,000  Level New York Center
01:25PM 40.3981 -77.4431 North 233 268 19,000  Level New York Center
01:26PM 40.4731 -77.4447 359° North 233 268 19,000  Level New York Center
01:27PM 40.5336 -77.4425 North 233 268 19,000  Level New York Center
01:28PM 40.6031 -77.3944 28° Northeast 238 274 19,000 -360 Level New York Center
01:29PM 40.6708 -77.3381 32° Northeast 267 307 18,300 -600 Descending New York Center
01:30PM 40.7278 -77.2889 33° Northeast 267 307 17,800 -360 Descending New York Center
01:31PM 40.7933 -77.2347 32° Northeast 273 314 17,600 -420 Descending New York Center
01:32PM 40.8631 -77.1756 33° Northeast 278 320 17,000 -300 Descending New York Center
01:33PM 40.9289 -77.1156 35° Northeast 278 320 17,000  Level New York Center
01:34PM 40.9942 -77.0614 32° Northeast 278 320 17,000  Level New York Center
01:35PM 41.0597 -77.0042 33° Northeast 278 320 17,000  Level New York Center
01:36PM 41.1233 -76.9464 34° Northeast 273 314 17,000  Level New York Center
01:37PM 41.1886 -76.8917 32° Northeast 273 314 17,000  Level New York Center
01:38PM 41.2539 -76.8369 32° Northeast 273 314 17,000  Level New York Center
01:39PM 41.3172 -76.7792 34° Northeast 273 314 17,000  Level New York Center
01:40PM 41.3847 -76.7217 33° Northeast 273 314 17,000  Level New York Center
01:41PM 41.4547 -76.6586 34° Northeast 273 314 17,000  Level New York Center
01:42PM 41.5200 -76.6006 34° Northeast 273 314 17,000 -60 Level New York Center
01:43PM 41.5853 -76.5425 34° Northeast 273 314 16,900 -840 Descending New York Center
01:44PM 41.6483 -76.4867 33° Northeast 283 326 15,400 -1,560 Descending New York Center
01:45PM 41.7158 -76.4258 34° Northeast 297 342 13,800 -1,680 Descending New York Center
01:46PM 41.7878 -76.3597 34° Northeast 292 336 12,100 -1,740 Descending New York Center
01:47PM 41.8547 -76.3039 32° Northeast 287 330 10,400 -1,560 Descending New York Center
01:48PM 41.9181 -76.2422 36° Northeast 282 325 9,000 -1,560 Descending New York Center
01:49PM 41.9725 -76.1911 35° Northeast 272 313 7,400 -1,680 Descending New York Center
01:50PM 42.0311 -76.1400 33° Northeast 260 299 5,700 -1,200 Descending New York Center
01:51PM 42.0875 -76.0886 34° Northeast 235 270 5,000 -900 Descending New York Center
01:52PM 42.1208 -76.0411 47° Northeast 203 234 4,000 -1,020 Descending New York Center
01:53PM 42.1539 -75.9961 45° Northeast 182 209 3,000 -1,020 Descending New York Center
01:54PM 42.1844 -75.9650 37° Northeast 157 181 2,000 -540 Descending New York Center
01:55PM 42.2092 -75.9222 52° Northeast 157 181 2,000 3,480 Level New York Center
01:56PM 42.2381 -75.8825 46° Northeast 157 181 9,000 3,480 Climbing New York Center
01:57PM 42.2647 -75.8425 48° Northeast 157 181 9,000  Level New York Center
01:58PM 42.2933 -75.8028 46° Northeast 157 181 9,000  Level New York Center
02:00PM 42.2446 -75.8884 232° Southwest  Level FlightAware Approximate